| Date | Time | Temp. (oF) | Dew Point (oF) | Rel. Hum. (%) | Press. (in.) | Wind Dir. | Wind Speed (mph) | Hourly Rainfall (in.) |
|
|---|---|---|---|---|---|---|---|---|---|
| 1 | 07/25 | 00:00 | 64 | 59 | 84 | 30.07 | SSW | 0 | 0.00 |
| 2 | 07/24 | 23:00 | 65 | 57 | 78 | 30.07 | SSW | 0 | 0.00 |
| 3 | 07/24 | 22:00 | 69 | 55 | 63 | 30.05 | NW | 0 | 0.00 |
| 4 | 07/24 | 21:00 | 72 | 53 | 53 | 30.04 | WSW | 2 | 0.00 |
| 5 | 07/24 | 20:00 | 76 | 54 | 47 | 30.01 | WNW | 0 | 0.00 |
| 6 | 07/24 | 19:00 | 79 | 54 | 43 | 29.99 | W | 4 | 0.00 |
| 7 | 07/24 | 18:00 | 77 | 52 | 43 | 29.99 | NNW | 6 | 0.00 |
| 8 | 07/24 | 17:00 | 81 | 60 | 50 | 29.98 | WNW | 5 | 0.00 |
| 9 | 07/24 | 16:00 | 79 | 61 | 55 | 29.97 | W | 3 | 0.00 |
| 10 | 07/24 | 15:00 | 80 | 62 | 56 | 29.97 | SSW | 2 | 0.00 |
| 11 | 07/24 | 14:00 | 78 | 62 | 59 | 29.97 | W | 4 | 0.00 |
| 12 | 07/24 | 13:00 | 78 | 62 | 60 | 29.97 | WSW | 8 | 0.00 |
| 13 | 07/24 | 12:00 | 74 | 63 | 70 | 29.96 | W | 3 | 0.00 |
| 14 | 07/24 | 11:00 | 75 | 65 | 73 | 29.95 | WSW | 11 | 0.00 |
| 15 | 07/24 | 10:00 | 72 | 65 | 80 | 29.94 | SW | 4 | 0.00 |
| 16 | 07/24 | 09:00 | 68 | 65 | 91 | 29.94 | WSW | 2 | 0.00 |
| 17 | 07/24 | 08:00 | 66 | 65 | 98 | 29.93 | WNW | 2 | 0.00 |
| 18 | 07/24 | 07:00 | 65 | 64 | 100 | 29.92 | WSW | 3 | 0.00 |
| 19 | 07/24 | 06:00 | 67 | 67 | 100 | 29.90 | NW | 0 | 0.00 |
| 20 | 07/24 | 05:00 | 68 | 68 | 100 | 29.89 | WNW | 1 | 0.00 |
| 21 | 07/24 | 04:00 | 68 | 68 | 100 | 29.88 | SSE | 4 | 0.01 |
| 22 | 07/24 | 03:00 | 68 | 68 | 100 | 29.88 | SSW | 0 | 0.03 |
| 23 | 07/24 | 02:00 | 68 | 68 | 100 | 29.88 | ESE | 0 | 0.04 |
| 24 | 07/24 | 01:00 | 69 | 68 | 100 | 29.89 | SW | 0 | 0.14 |